Time;durP1;ratioP1;P1;durP2;ratioP2;P2;SDS_P1;SDS_P2;PMS_P1;PMS_P2;Temp;Humidity;BMP_temperature;BMP_pressure;BME280_temperature;BME280_humidity;BME280_pressure;Samples;Min_cycle;Max_cycle;Signal;HPM_P1;HPM_P2
2022/10/25 00:02:16;;;;;;;24.52;12.13;;;;;;;;;;5150844;27;20057;-68
2022/10/25 00:04:42;;;;;;;25.58;12.48;;;;;;;;;;5150567;27;20106;-68
2022/10/25 00:07:08;;;;;;;24.67;12.40;;;;;;;;;;5150704;27;20035;-68
2022/10/25 00:09:34;;;;;;;29.98;13.23;;;;;;;;;;5150654;27;20078;-68
2022/10/25 00:12:00;;;;;;;28.80;13.00;;;;;;;;;;5150638;27;20123;-68
2022/10/25 00:14:26;;;;;;;36.10;13.95;;;;;;;;;;5150580;27;20053;-70
2022/10/25 00:16:52;;;;;;;29.65;12.68;;;;;;;;;;5131756;27;20042;-69
2022/10/25 00:19:18;;;;;;;29.58;13.48;;;;;;;;;;5150772;27;20039;-68
2022/10/25 00:21:44;;;;;;;31.58;13.95;;;;;;;;;;5150704;27;20042;-66
2022/10/25 00:24:11;;;;;;;33.40;14.25;;;;;;;;;;5150751;27;20097;-68
2022/10/25 00:26:40;;;;;;;29.80;13.50;;;;;;;;;;5150477;27;20066;-69
2022/10/25 00:29:07;;;;;;;30.35;14.25;;;;;;;;;;5150362;27;20055;-67
2022/10/25 00:31:34;;;;;;;32.38;14.75;;;;;;;;;;5150631;27;20046;-68
2022/10/25 00:34:00;;;;;;;31.83;15.13;;;;;;;;;;5131804;27;20133;-67
2022/10/25 00:36:26;;;;;;;29.02;14.27;;;;;;;;;;5132255;27;20424;-76
2022/10/25 00:38:53;;;;;;;35.17;14.88;;;;;;;;;;5150564;27;20142;-68
2022/10/25 00:41:18;;;;;;;;;;;;;;;;;;5151132;27;20372;-69
2022/10/25 00:43:46;;;;;;;32.38;15.55;;;;;;;;;;5150484;27;19919;-68
2022/10/25 00:46:12;;;;;;;30.25;15.73;;;;;;;;;;5152441;27;20541;-68
2022/10/25 00:48:39;;;;;;;33.10;16.23;;;;;;;;;;5154194;27;20503;-68
2022/10/25 00:51:05;;;;;;;34.15;16.60;;;;;;;;;;5154761;27;20039;-67
2022/10/25 00:53:34;;;;;;;34.22;16.88;;;;;;;;;;5154370;27;20042;-70
2022/10/25 00:56:07;;;;;;;34.33;16.85;;;;;;;;;;5154356;27;20122;-68
2022/10/25 00:58:35;;;;;;;35.30;17.00;;;;;;;;;;5154581;27;20046;-70
2022/10/25 01:01:05;;;;;;;31.98;15.77;;;;;;;;;;5154060;27;20065;-79
2022/10/25 01:03:31;;;;;;;37.95;17.60;;;;;;;;;;5154289;27;20054;-81
2022/10/25 01:05:57;;;;;;;;;;;;;;;;;;5154330;27;20088;-69
2022/10/25 01:08:24;;;;;;;34.83;16.73;;;;;;;;;;5154167;27;20339;-70
2022/10/25 01:10:50;;;;;;;36.40;18.50;;;;;;;;;;5154014;27;20460;-71
2022/10/25 01:13:16;;;;;;;40.83;18.48;;;;;;;;;;5134497;27;20482;-70
2022/10/25 01:15:45;;;;;;;36.33;18.33;;;;;;;;;;5153778;27;20088;-68
2022/10/25 01:18:21;;;;;;;38.75;19.40;;;;;;;;;;5153614;27;20046;-64
2022/10/25 01:21:08;;;;;;;36.20;18.95;;;;;;;;;;5134946;27;20481;-70
2022/10/25 01:23:44;;;;;;;38.28;19.95;;;;;;;;;;5100850;27;20046;-85
2022/10/25 01:26:10;;;;;;;42.30;19.95;;;;;;;;;;5153590;27;20154;-68
2022/10/25 01:28:54;;;;;;;43.05;20.27;;;;;;;;;;5153299;27;20138;-68
2022/10/25 01:31:20;;;;;;;42.83;21.08;;;;;;;;;;5153606;27;20055;-76
2022/10/25 01:33:51;;;;;;;40.25;20.10;;;;;;;;;;5153466;27;20049;-68
2022/10/25 01:36:25;;;;;;;36.13;19.58;;;;;;;;;;5153581;27;20049;-67
2022/10/25 01:39:12;;;;;;;37.38;20.27;;;;;;;;;;5134990;27;20070;-68
2022/10/25 01:41:49;;;;;;;38.65;19.95;;;;;;;;;;5153484;27;20125;-69
2022/10/25 01:44:35;;;;;;;46.38;20.50;;;;;;;;;;5153069;27;20047;-69
2022/10/25 01:47:10;;;;;;;39.53;20.15;;;;;;;;;;5153680;27;20043;-65
2022/10/25 01:49:41;;;;;;;35.80;19.00;;;;;;;;;;5153541;27;20350;-73
2022/10/25 01:52:07;;;;;;;34.88;18.40;;;;;;;;;;5153831;27;20046;-67
2022/10/25 01:54:33;;;;;;;32.75;18.55;;;;;;;;;;5153513;27;20133;-67
2022/10/25 01:57:17;;;;;;;39.42;19.05;;;;;;;;;;5153410;27;20042;-66
2022/10/25 01:59:52;;;;;;;34.88;17.48;;;;;;;;;;5153705;27;20138;-65
2022/10/25 02:02:37;;;;;;;35.95;16.73;;;;;;;;;;5153753;27;20129;-67
2022/10/25 02:05:06;;;;;;;34.25;16.15;;;;;;;;;;5153598;27;20129;-66
2022/10/25 02:07:37;;;;;;;31.27;15.68;;;;;;;;;;5153358;27;20153;-64
2022/10/25 02:10:23;;;;;;;30.65;16.20;;;;;;;;;;5153473;27;20074;-65
2022/10/25 02:13:04;;;;;;;28.88;15.52;;;;;;;;;;5153355;27;20436;-66
2022/10/25 02:15:30;;;;;;;33.70;15.93;;;;;;;;;;5154064;27;20060;-66
2022/10/25 02:17:58;;;;;;;29.55;15.15;;;;;;;;;;5152947;27;20393;-67
2022/10/25 02:20:25;;;;;;;33.58;17.45;;;;;;;;;;5152985;27;20046;-67
2022/10/25 02:22:53;;;;;;;31.55;16.48;;;;;;;;;;5152455;27;20499;-67
2022/10/25 02:25:20;;;;;;;28.35;15.38;;;;;;;;;;5152752;27;20122;-66
2022/10/25 02:27:46;;;;;;;28.23;16.13;;;;;;;;;;5153026;27;20058;-67
2022/10/25 02:30:12;;;;;;;34.20;17.05;;;;;;;;;;5152703;27;20134;-70
2022/10/25 02:32:38;;;;;;;27.25;15.23;;;;;;;;;;5152820;27;20058;-67
2022/10/25 02:35:05;;;;;;;30.23;16.13;;;;;;;;;;5152993;27;20043;-67
2022/10/25 02:37:31;;;;;;;30.25;15.75;;;;;;;;;;5152600;27;20049;-69
2022/10/25 02:39:58;;;;;;;31.52;16.10;;;;;;;;;;5152599;27;20058;-66
2022/10/25 02:42:24;;;;;;;31.13;16.52;;;;;;;;;;5152288;27;20069;-64
2022/10/25 02:44:50;;;;;;;29.38;16.98;;;;;;;;;;5152272;27;20047;-67
2022/10/25 02:47:16;;;;;;;35.60;17.35;;;;;;;;;;5152211;27;20043;-66
2022/10/25 02:49:42;;;;;;;32.30;18.42;;;;;;;;;;5151917;27;20130;-76
2022/10/25 02:52:08;;;;;;;34.97;18.92;;;;;;;;;;5133638;27;20046;-67
2022/10/25 02:54:34;;;;;;;31.40;18.10;;;;;;;;;;5152110;27;20419;-65
2022/10/25 02:57:00;;;;;;;36.70;18.23;;;;;;;;;;5152238;27;20038;-66
2022/10/25 02:59:28;;;;;;;31.60;18.55;;;;;;;;;;5152206;27;20118;-65
2022/10/25 03:01:54;;;;;;;33.42;19.10;;;;;;;;;;5152548;27;20086;-66
2022/10/25 03:04:20;;;;;;;33.15;19.02;;;;;;;;;;5152177;27;20099;-65
2022/10/25 03:06:46;;;;;;;35.20;18.98;;;;;;;;;;5133116;27;20038;-71
2022/10/25 03:09:12;;;;;;;32.78;18.40;;;;;;;;;;5151441;27;20046;-66
2022/10/25 03:11:38;;;;;;;32.25;17.95;;;;;;;;;;5152212;27;20042;-66
2022/10/25 03:14:04;;;;;;;36.20;19.20;;;;;;;;;;5151896;27;20047;-65
2022/10/25 03:16:30;;;;;;;31.98;19.05;;;;;;;;;;5151971;27;20061;-66
2022/10/25 03:18:57;;;;;;;35.13;19.60;;;;;;;;;;5151869;27;20046;-70
2022/10/25 03:21:23;;;;;;;33.75;19.40;;;;;;;;;;5151771;27;20184;-66
2022/10/25 03:23:49;;;;;;;35.50;19.48;;;;;;;;;;5152059;27;20047;-66
2022/10/25 03:26:15;;;;;;;35.25;19.02;;;;;;;;;;5152037;27;20099;-66
2022/10/25 03:28:41;;;;;;;34.45;18.45;;;;;;;;;;5151595;27;20089;-66
2022/10/25 03:31:14;;;;;;;33.35;17.13;;;;;;;;;;5151772;27;20124;-66
2022/10/25 03:33:41;;;;;;;32.80;16.85;;;;;;;;;;5151280;27;20099;-64
2022/10/25 03:36:07;;;;;;;31.92;16.70;;;;;;;;;;5151591;27;20102;-66
2022/10/25 03:38:33;;;;;;;36.80;16.70;;;;;;;;;;5151874;27;20050;-68
2022/10/25 03:40:59;;;;;;;28.77;16.63;;;;;;;;;;5151291;27;20534;-65
2022/10/25 03:43:25;;;;;;;35.78;16.63;;;;;;;;;;5151273;27;20043;-67
2022/10/25 03:45:51;;;;;;;30.85;14.77;;;;;;;;;;5151434;27;20038;-68
2022/10/25 03:48:17;;;;;;;32.45;15.30;;;;;;;;;;5151472;27;20046;-66
2022/10/25 03:50:43;;;;;;;30.38;14.70;;;;;;;;;;5151073;27;20198;-67
2022/10/25 03:53:10;;;;;;;28.48;14.75;;;;;;;;;;5151261;27;20040;-67
2022/10/25 03:55:36;;;;;;;32.40;14.52;;;;;;;;;;5151039;27;20126;-64
2022/10/25 03:58:02;;;;;;;33.35;15.45;;;;;;;;;;5151285;27;20047;-64
2022/10/25 04:00:28;;;;;;;34.80;15.05;;;;;;;;;;5132707;27;20457;-68
2022/10/25 04:02:58;;;;;;;34.03;15.93;;;;;;;;;;5132372;27;20075;-67
2022/10/25 04:05:24;;;;;;;35.60;15.07;;;;;;;;;;5150781;27;20054;-67
2022/10/25 04:07:50;;;;;;;31.13;14.68;;;;;;;;;;5151028;27;20047;-67
2022/10/25 04:10:18;;;;;;;30.55;14.95;;;;;;;;;;5150570;27;20455;-67
2022/10/25 04:12:44;;;;;;;32.28;15.32;;;;;;;;;;5151021;27;20043;-68
2022/10/25 04:15:10;;;;;;;34.63;15.73;;;;;;;;;;5150783;27;20043;-72
2022/10/25 04:17:36;;;;;;;31.95;15.82;;;;;;;;;;5151032;27;20051;-67
2022/10/25 04:20:02;;;;;;;34.40;16.27;;;;;;;;;;5150457;27;20058;-68
2022/10/25 04:22:28;;;;;;;34.70;17.58;;;;;;;;;;5155423;27;20073;-67
2022/10/25 04:24:54;;;;;;;33.35;16.23;;;;;;;;;;5155456;27;20068;-74
2022/10/25 04:27:20;;;;;;;40.55;17.85;;;;;;;;;;5155079;27;20081;-66
2022/10/25 04:29:46;;;;;;;37.70;17.65;;;;;;;;;;5154752;27;20455;-67
2022/10/25 04:32:12;;;;;;;40.20;18.20;;;;;;;;;;5155271;27;20050;-67
2022/10/25 04:34:38;;;;;;;38.25;17.92;;;;;;;;;;5155037;27;20177;-71
2022/10/25 04:37:04;;;;;;;35.28;15.75;;;;;;;;;;5155125;27;20428;-68
2022/10/25 04:39:30;;;;;;;34.90;17.45;;;;;;;;;;5155300;27;20173;-67
2022/10/25 04:41:56;;;;;;;36.72;17.67;;;;;;;;;;5154812;27;20447;-75
2022/10/25 04:44:23;;;;;;;40.45;18.20;;;;;;;;;;5155080;27;20043;-67
2022/10/25 04:46:50;;;;;;;39.65;17.42;;;;;;;;;;5155160;27;20038;-67
2022/10/25 04:49:17;;;;;;;38.75;16.98;;;;;;;;;;5155047;27;20106;-68
2022/10/25 04:51:43;;;;;;;39.72;17.55;;;;;;;;;;5154446;27;20510;-68
2022/10/25 04:54:11;;;;;;;38.90;17.58;;;;;;;;;;5154660;27;20058;-67
2022/10/25 04:56:37;;;;;;;36.72;16.92;;;;;;;;;;5154783;27;20046;-64
2022/10/25 04:59:04;;;;;;;38.10;15.15;;;;;;;;;;5154429;27;20049;-68
2022/10/25 05:01:30;;;;;;;46.53;18.55;;;;;;;;;;5154513;27;20395;-65
2022/10/25 05:03:56;;;;;;;34.10;16.27;;;;;;;;;;5154562;27;20146;-66
2022/10/25 05:06:24;;;;;;;39.05;17.13;;;;;;;;;;5154586;27;20073;-66
2022/10/25 05:08:51;;;;;;;38.33;17.48;;;;;;;;;;5154236;27;20047;-69
2022/10/25 05:11:18;;;;;;;37.67;17.08;;;;;;;;;;5154200;27;20054;-66
2022/10/25 05:13:44;;;;;;;35.45;16.75;;;;;;;;;;5154311;27;20090;-65
2022/10/25 05:16:20;;;;;;;43.75;17.60;;;;;;;;;;5154095;27;20088;-65
2022/10/25 05:18:47;;;;;;;43.97;17.55;;;;;;;;;;5154268;27;20107;-65
2022/10/25 05:21:13;;;;;;;;;;;;;;;;;;5154147;27;20057;-65
2022/10/25 05:23:39;;;;;;;39.08;17.25;;;;;;;;;;5153884;27;20351;-66
2022/10/25 05:26:06;;;;;;;43.45;17.13;;;;;;;;;;5153445;27;20073;-67
2022/10/25 05:28:32;;;;;;;46.58;18.90;;;;;;;;;;5153745;27;20054;-64
2022/10/25 05:30:58;;;;;;;;;;;;;;;;;;5153778;27;20102;-66
2022/10/25 05:33:25;;;;;;;46.05;18.60;;;;;;;;;;5153204;27;19999;-66
2022/10/25 05:35:51;;;;;;;38.88;18.08;;;;;;;;;;5153726;27;20039;-66
2022/10/25 05:38:17;;;;;;;37.72;18.85;;;;;;;;;;5153325;27;20047;-67
2022/10/25 05:40:43;;;;;;;44.75;17.83;;;;;;;;;;5153309;27;20478;-67
2022/10/25 05:43:09;;;;;;;42.78;19.63;;;;;;;;;;5153715;27;20065;-67
2022/10/25 05:45:35;;;;;;;45.28;20.33;;;;;;;;;;5153289;27;20130;-70
2022/10/25 05:48:01;;;;;;;47.88;21.17;;;;;;;;;;5153429;27;20134;-65
2022/10/25 05:50:27;;;;;;;52.20;21.33;;;;;;;;;;5153214;27;20043;-67
2022/10/25 05:52:53;;;;;;;46.45;21.05;;;;;;;;;;5153298;27;20049;-67
2022/10/25 05:55:19;;;;;;;46.03;21.65;;;;;;;;;;5153179;27;20188;-66
2022/10/25 05:57:50;;;;;;;38.65;20.17;;;;;;;;;;5153278;27;20074;-66
2022/10/25 06:00:16;;;;;;;41.33;20.05;;;;;;;;;;5153388;27;20046;-67
2022/10/25 06:02:42;;;;;;;44.38;20.63;;;;;;;;;;5153420;27;20059;-66
2022/10/25 06:05:08;;;;;;;45.55;20.45;;;;;;;;;;5153437;27;20224;-67
2022/10/25 06:07:34;;;;;;;45.10;20.33;;;;;;;;;;5153546;27;20470;-66
2022/10/25 06:10:00;;;;;;;42.28;19.92;;;;;;;;;;5153269;27;20339;-66
2022/10/25 06:12:26;;;;;;;40.08;18.27;;;;;;;;;;5153385;27;20069;-66
2022/10/25 06:14:52;;;;;;;40.17;17.98;;;;;;;;;;5134265;27;20047;-69
2022/10/25 06:17:19;;;;;;;40.83;17.88;;;;;;;;;;5152783;27;20046;-66
2022/10/25 06:19:45;;;;;;;37.95;18.45;;;;;;;;;;5153128;27;20114;-64
2022/10/25 06:22:11;;;;;;;33.03;15.60;;;;;;;;;;5134063;27;20047;-68
2022/10/25 06:24:37;;;;;;;33.47;16.50;;;;;;;;;;5134584;27;20073;-65
2022/10/25 06:27:03;;;;;;;38.72;15.75;;;;;;;;;;5152872;27;20046;-67
2022/10/25 06:29:29;;;;;;;32.95;14.68;;;;;;;;;;5134576;27;20130;-66
2022/10/25 06:31:55;;;;;;;40.80;15.20;;;;;;;;;;5153255;27;20046;-66
2022/10/25 06:34:21;;;;;;;31.90;13.77;;;;;;;;;;5153278;27;20047;-66
2022/10/25 06:36:47;;;;;;;42.47;13.93;;;;;;;;;;5134306;27;20275;-66
2022/10/25 06:39:13;;;;;;;30.35;13.43;;;;;;;;;;5152537;27;20043;-71
2022/10/25 06:41:39;;;;;;;30.60;13.52;;;;;;;;;;5152829;27;20047;-65
2022/10/25 06:44:06;;;;;;;34.90;14.77;;;;;;;;;;5151511;27;20431;-66
2022/10/25 06:46:33;;;;;;;32.90;14.48;;;;;;;;;;5152505;27;20042;-67
2022/10/25 06:49:00;;;;;;;36.60;14.38;;;;;;;;;;5152364;27;20209;-67
2022/10/25 06:51:27;;;;;;;35.55;15.00;;;;;;;;;;5152133;27;20068;-67
2022/10/25 06:53:57;;;;;;;38.33;14.48;;;;;;;;;;5152319;27;20061;-64
2022/10/25 06:56:23;;;;;;;34.25;14.10;;;;;;;;;;5152593;27;20047;-66
2022/10/25 06:58:49;;;;;;;;;;;;;;;;;;5152618;27;20045;-66
2022/10/25 07:01:16;;;;;;;34.13;14.65;;;;;;;;;;5151910;27;20009;-70
2022/10/25 07:03:43;;;;;;;36.20;14.50;;;;;;;;;;5152063;27;20046;-66
2022/10/25 07:06:09;;;;;;;;;;;;;;;;;;5152695;27;20042;-67
2022/10/25 07:08:36;;;;;;;38.40;14.18;;;;;;;;;;5152018;27;19915;-67
2022/10/25 07:11:02;;;;;;;33.25;13.95;;;;;;;;;;5151668;27;20146;-67
2022/10/25 07:13:30;;;;;;;35.50;14.13;;;;;;;;;;5151871;27;20046;-68
2022/10/25 07:16:06;;;;;;;34.38;14.85;;;;;;;;;;5132762;27;20455;-67
2022/10/25 07:18:32;;;;;;;34.35;13.02;;;;;;;;;;5152283;27;20042;-67
2022/10/25 07:21:03;;;;;;;31.30;13.85;;;;;;;;;;5151983;27;20199;-67
2022/10/25 07:23:29;;;;;;;33.70;12.07;;;;;;;;;;5151387;27;20457;-66
2022/10/25 07:25:56;;;;;;;32.05;12.45;;;;;;;;;;5151464;27;20046;-67
2022/10/25 07:28:22;;;;;;;;;;;;;;;;;;5133462;27;20118;-67
2022/10/25 07:30:48;;;;;;;33.60;15.18;;;;;;;;;;5152027;27;19966;-65
2022/10/25 07:33:16;;;;;;;34.05;12.50;;;;;;;;;;5151185;27;20511;-66
2022/10/25 07:35:45;;;;;;;32.97;12.02;;;;;;;;;;5151710;27;20058;-66
2022/10/25 07:38:12;;;;;;;33.80;11.73;;;;;;;;;;5151407;27;20480;-65
2022/10/25 07:40:38;;;;;;;33.30;12.10;;;;;;;;;;5151151;27;20115;-66
2022/10/25 07:43:04;;;;;;;31.63;12.80;;;;;;;;;;5151144;27;20149;-65
2022/10/25 07:45:30;;;;;;;29.98;11.60;;;;;;;;;;5151235;27;20047;-66
2022/10/25 07:47:56;;;;;;;34.78;11.05;;;;;;;;;;5151662;27;20047;-66
2022/10/25 07:50:22;;;;;;;36.10;12.18;;;;;;;;;;5132439;27;20054;-67
2022/10/25 07:52:48;;;;;;;27.63;10.90;;;;;;;;;;5151568;27;20050;-65
2022/10/25 07:55:14;;;;;;;37.05;11.52;;;;;;;;;;5151379;27;20370;-66
2022/10/25 07:57:41;;;;;;;25.90;10.80;;;;;;;;;;5132657;27;20038;-67
2022/10/25 08:00:07;;;;;;;27.92;10.40;;;;;;;;;;5151697;27;20225;-65
2022/10/25 08:02:33;;;;;;;32.85;11.77;;;;;;;;;;5151766;27;20053;-73
2022/10/25 08:05:00;;;;;;;25.92;10.68;;;;;;;;;;5152308;27;20143;-66
2022/10/25 08:07:26;;;;;;;31.27;11.45;;;;;;;;;;5152452;27;20042;-65
2022/10/25 08:09:52;;;;;;;62.88;23.08;;;;;;;;;;5151786;27;20053;-65
2022/10/25 08:12:18;;;;;;;29.65;10.70;;;;;;;;;;5152152;27;20039;-66
2022/10/25 08:14:44;;;;;;;26.52;10.32;;;;;;;;;;5152117;27;20043;-65
2022/10/25 08:17:11;;;;;;;33.42;10.98;;;;;;;;;;5151951;27;20146;-64
2022/10/25 08:19:37;;;;;;;29.55;10.82;;;;;;;;;;5151831;27;20095;-63
2022/10/25 08:22:03;;;;;;;;;;;;;;;;;;5133563;27;20064;-65
2022/10/25 08:24:30;;;;;;;31.67;9.80;;;;;;;;;;5151710;27;20002;-66
2022/10/25 08:26:56;;;;;;;30.70;11.18;;;;;;;;;;5151964;27;20126;-64
2022/10/25 08:29:22;;;;;;;32.95;11.05;;;;;;;;;;5115942;27;20054;-65
2022/10/25 08:31:48;;;;;;;30.15;11.30;;;;;;;;;;5151697;27;20054;-65
2022/10/25 08:34:14;;;;;;;30.38;10.93;;;;;;;;;;5150686;27;20084;-63
2022/10/25 08:36:40;;;;;;;34.50;12.80;;;;;;;;;;5150854;27;20054;-65
2022/10/25 08:39:06;;;;;;;27.73;10.10;;;;;;;;;;5150857;27;20047;-66
2022/10/25 08:41:37;;;;;;;26.63;9.85;;;;;;;;;;5150871;27;20335;-67
2022/10/25 08:44:16;;;;;;;32.70;10.48;;;;;;;;;;5151538;27;20377;-68
2022/10/25 08:46:54;;;;;;;27.67;10.90;;;;;;;;;;5150446;27;20512;-66
2022/10/25 08:49:26;;;;;;;29.30;11.10;;;;;;;;;;5150336;27;20225;-66
2022/10/25 08:51:53;;;;;;;33.88;11.27;;;;;;;;;;5150233;27;20058;-65
2022/10/25 08:54:24;;;;;;;27.38;11.38;;;;;;;;;;5150257;27;20119;-65
2022/10/25 08:56:52;;;;;;;32.05;11.60;;;;;;;;;;5150297;27;20043;-66
2022/10/25 08:59:22;;;;;;;34.75;11.93;;;;;;;;;;5150268;27;20099;-65
2022/10/25 09:01:51;;;;;;;32.30;12.13;;;;;;;;;;5150176;27;20054;-64
2022/10/25 09:04:18;;;;;;;26.48;11.27;;;;;;;;;;5150092;27;20050;-62
2022/10/25 09:06:59;;;;;;;32.33;12.55;;;;;;;;;;5150975;27;20057;-66
2022/10/25 09:09:30;;;;;;;31.27;12.43;;;;;;;;;;5154100;27;20149;-65
2022/10/25 09:11:59;;;;;;;32.55;12.68;;;;;;;;;;5153888;27;20039;-64
2022/10/25 09:14:34;;;;;;;32.20;12.32;;;;;;;;;;5154103;27;20457;-64
2022/10/25 09:17:09;;;;;;;30.27;13.23;;;;;;;;;;5135394;27;20159;-64
2022/10/25 09:19:38;;;;;;;32.00;12.85;;;;;;;;;;5153864;27;20070;-65
2022/10/25 09:22:11;;;;;;;32.80;13.32;;;;;;;;;;5154334;27;20049;-65
2022/10/25 09:24:46;;;;;;;32.70;13.25;;;;;;;;;;5153779;27;20095;-65
2022/10/25 09:27:18;;;;;;;32.63;12.57;;;;;;;;;;5154148;27;20070;-65
2022/10/25 09:29:57;;;;;;;33.47;13.18;;;;;;;;;;5153664;27;20050;-65
2022/10/25 09:32:28;;;;;;;27.95;12.85;;;;;;;;;;5154083;27;20106;-66
2022/10/25 09:34:54;;;;;;;36.05;15.15;;;;;;;;;;5135015;27;20046;-65
2022/10/25 09:37:25;;;;;;;29.15;11.63;;;;;;;;;;5153832;27;20110;-65
2022/10/25 09:39:52;;;;;;;34.70;12.77;;;;;;;;;;5135325;27;20098;-67
2022/10/25 09:42:25;;;;;;;34.78;12.73;;;;;;;;;;5154110;27;20064;-65
2022/10/25 09:44:53;;;;;;;31.73;11.48;;;;;;;;;;5154345;27;20047;-65
2022/10/25 09:47:38;;;;;;;27.10;11.13;;;;;;;;;;5153263;27;20506;-64
2022/10/25 09:50:10;;;;;;;33.17;11.77;;;;;;;;;;5153764;27;20058;-62
2022/10/25 09:52:45;;;;;;;25.48;9.85;;;;;;;;;;5153774;27;20042;-72
2022/10/25 09:55:11;;;;;;;30.33;10.50;;;;;;;;;;5153591;27;20187;-65
2022/10/25 09:57:37;;;;;;;27.67;10.48;;;;;;;;;;5153547;27;20088;-67
2022/10/25 10:00:03;;;;;;;30.75;10.50;;;;;;;;;;5153726;27;20099;-66
2022/10/25 10:02:29;;;;;;;30.45;10.20;;;;;;;;;;5153425;27;20038;-65
2022/10/25 10:04:55;;;;;;;29.73;10.25;;;;;;;;;;5134765;27;20042;-63
2022/10/25 10:07:23;;;;;;;30.30;11.00;;;;;;;;;;5153287;27;20116;-70
2022/10/25 10:09:51;;;;;;;32.63;9.45;;;;;;;;;;5152953;27;20095;-65
2022/10/25 10:12:20;;;;;;;29.67;8.98;;;;;;;;;;5153090;27;20435;-65
2022/10/25 10:14:55;;;;;;;29.40;9.48;;;;;;;;;;5153137;27;20078;-65
2022/10/25 10:17:22;;;;;;;25.05;8.10;;;;;;;;;;5152830;27;20103;-65
2022/10/25 10:20:07;;;;;;;28.02;7.10;;;;;;;;;;5151987;27;20039;-65
2022/10/25 10:22:35;;;;;;;23.13;7.47;;;;;;;;;;5134497;27;20057;-68
2022/10/25 10:25:02;;;;;;;26.88;7.43;;;;;;;;;;5153090;27;20152;-66
2022/10/25 10:27:28;;;;;;;21.90;6.30;;;;;;;;;;5153129;27;20118;-66
2022/10/25 10:29:57;;;;;;;23.63;6.20;;;;;;;;;;5153070;27;20066;-64
2022/10/25 10:32:27;;;;;;;30.33;6.43;;;;;;;;;;5152703;27;20123;-65
2022/10/25 10:34:55;;;;;;;23.42;5.72;;;;;;;;;;5152954;27;20408;-65
2022/10/25 10:37:22;;;;;;;17.90;5.63;;;;;;;;;;5153081;27;20142;-65
2022/10/25 10:39:48;;;;;;;19.60;5.10;;;;;;;;;;5152848;27;20340;-65
2022/10/25 10:42:16;;;;;;;21.70;5.22;;;;;;;;;;5152644;27;20378;-66
2022/10/25 10:44:58;;;;;;;21.27;5.93;;;;;;;;;;5152512;27;20050;-74
2022/10/25 10:47:25;;;;;;;21.92;5.03;;;;;;;;;;5152168;27;20130;-66
2022/10/25 10:49:51;;;;;;;;;;;;;;;;;;5152562;27;20374;-70
2022/10/25 10:52:27;;;;;;;21.88;5.28;;;;;;;;;;5133852;27;19919;-67
2022/10/25 10:54:53;;;;;;;22.85;5.07;;;;;;;;;;5152303;27;20100;-66
2022/10/25 10:57:28;;;;;;;21.75;4.28;;;;;;;;;;5152540;27;20441;-63
2022/10/25 10:59:56;;;;;;;23.10;5.32;;;;;;;;;;5152503;27;20426;-67
2022/10/25 11:02:22;;;;;;;21.48;4.60;;;;;;;;;;5152464;27;20047;-63
2022/10/25 11:04:48;;;;;;;20.42;5.30;;;;;;;;;;5152409;27;20048;-65
2022/10/25 11:07:32;;;;;;;19.55;4.53;;;;;;;;;;5152763;27;20072;-65
2022/10/25 11:10:16;;;;;;;24.10;4.25;;;;;;;;;;5152054;27;20054;-65
2022/10/25 11:12:42;;;;;;;16.98;3.80;;;;;;;;;;5133533;27;20450;-66
2022/10/25 11:15:12;;;;;;;22.20;5.05;;;;;;;;;;5152682;27;20121;-65
2022/10/25 11:17:53;;;;;;;21.75;4.28;;;;;;;;;;5152033;27;20047;-66
2022/10/25 11:20:19;;;;;;;16.52;3.72;;;;;;;;;;5151967;27;20348;-66
2022/10/25 11:22:45;;;;;;;19.83;4.65;;;;;;;;;;5133755;27;20510;-70
2022/10/25 11:25:11;;;;;;;17.13;4.38;;;;;;;;;;5152120;27;20123;-65
2022/10/25 11:27:56;;;;;;;20.63;3.92;;;;;;;;;;5153067;27;20510;-65
2022/10/25 11:30:22;;;;;;;18.77;4.03;;;;;;;;;;5133729;27;20102;-64
2022/10/25 11:33:00;;;;;;;18.77;4.03;;;;;;;;;;5153145;27;20043;-68
2022/10/25 11:35:29;;;;;;;24.60;7.25;;;;;;;;;;5153700;27;20054;-66
2022/10/25 11:38:02;;;;;;;15.02;4.05;;;;;;;;;;5153213;27;20043;-65
2022/10/25 11:40:43;;;;;;;20.30;4.47;;;;;;;;;;5133757;27;20402;-66
2022/10/25 11:43:28;;;;;;;19.40;4.68;;;;;;;;;;5153333;27;20405;-65
2022/10/25 11:46:17;;;;;;;17.25;4.82;;;;;;;;;;5153123;27;20369;-65
2022/10/25 11:48:59;;;;;;;19.48;4.63;;;;;;;;;;5152463;27;20047;-65
2022/10/25 11:51:56;;;;;;;18.20;4.05;;;;;;;;;;5153497;27;20055;-65
2022/10/25 11:54:33;;;;;;;15.05;3.75;;;;;;;;;;5153517;27;20093;-66
2022/10/25 11:56:59;;;;;;;15.20;4.28;;;;;;;;;;5151926;27;20129;-73
2022/10/25 11:59:34;;;;;;;20.35;5.40;;;;;;;;;;5151333;27;20097;-65
2022/10/25 12:02:23;;;;;;;18.63;4.80;;;;;;;;;;5151670;27;20470;-65
2022/10/25 12:05:00;;;;;;;14.73;4.25;;;;;;;;;;5151601;27;20423;-65
2022/10/25 12:07:33;;;;;;;12.68;3.65;;;;;;;;;;5132782;27;20380;-65
2022/10/25 12:10:14;;;;;;;16.73;3.97;;;;;;;;;;5151435;27;20061;-68
2022/10/25 12:13:04;;;;;;;16.88;4.15;;;;;;;;;;5150881;27;20447;-66
2022/10/25 12:15:30;;;;;;;15.02;3.92;;;;;;;;;;5138170;27;20050;-64
2022/10/25 12:17:56;;;;;;;15.38;4.55;;;;;;;;;;5132663;27;20115;-66
2022/10/25 12:20:24;;;;;;;15.10;4.15;;;;;;;;;;5151627;27;20170;-65
2022/10/25 12:22:53;;;;;;;16.40;3.72;;;;;;;;;;5151102;27;20043;-66
2022/10/25 12:25:22;;;;;;;12.25;3.50;;;;;;;;;;5151456;27;20447;-68
2022/10/25 12:27:49;;;;;;;18.63;4.10;;;;;;;;;;5151736;27;20080;-64
2022/10/25 12:30:16;;;;;;;20.02;4.40;;;;;;;;;;5150887;27;20047;-67
2022/10/25 12:32:45;;;;;;;13.27;3.80;;;;;;;;;;5151406;27;20141;-68
2022/10/25 12:35:18;;;;;;;16.73;3.80;;;;;;;;;;5151144;27;20053;-69
2022/10/25 12:37:48;;;;;;;16.05;3.55;;;;;;;;;;5151557;27;20137;-68
2022/10/25 12:40:16;;;;;;;14.20;3.60;;;;;;;;;;5150991;27;20102;-66
2022/10/25 12:42:57;;;;;;;17.92;4.07;;;;;;;;;;5154123;27;20152;-65
2022/10/25 12:45:42;;;;;;;18.42;3.97;;;;;;;;;;5155405;27;20046;-65
2022/10/25 12:48:11;;;;;;;16.27;4.38;;;;;;;;;;5136444;27;20137;-65
2022/10/25 12:50:46;;;;;;;23.77;7.18;;;;;;;;;;5155192;27;20046;-67
2022/10/25 12:53:30;;;;;;;17.50;4.18;;;;;;;;;;5155413;27;20068;-66
2022/10/25 12:56:09;;;;;;;13.65;3.75;;;;;;;;;;5136765;27;20050;-77
2022/10/25 12:58:39;;;;;;;14.05;4.03;;;;;;;;;;5155351;27;20080;-64
2022/10/25 13:01:17;;;;;;;16.27;4.20;;;;;;;;;;5136665;27;20054;-67
2022/10/25 13:03:55;;;;;;;13.85;4.45;;;;;;;;;;5156145;27;20130;-66
2022/10/25 13:06:25;;;;;;;16.33;3.80;;;;;;;;;;5137495;27;20119;-65
2022/10/25 13:08:52;;;;;;;15.02;3.92;;;;;;;;;;5137451;27;20082;-65
2022/10/25 13:11:18;;;;;;;16.25;4.28;;;;;;;;;;5136238;27;20130;-68
2022/10/25 13:13:52;;;;;;;15.00;3.95;;;;;;;;;;5137419;27;20043;-64
2022/10/25 13:16:26;;;;;;;17.95;4.28;;;;;;;;;;5136676;27;20062;-66
2022/10/25 13:19:15;;;;;;;18.33;4.20;;;;;;;;;;5155492;27;20043;-65
2022/10/25 13:21:53;;;;;;;12.13;4.00;;;;;;;;;;5142329;27;20086;-65
2022/10/25 13:24:38;;;;;;;17.38;4.40;;;;;;;;;;5155253;27;20045;-65
2022/10/25 13:27:13;;;;;;;24.02;5.43;;;;;;;;;;5155547;27;20065;-65
2022/10/25 13:30:02;;;;;;;23.17;4.90;;;;;;;;;;5155316;27;20055;-63
2022/10/25 13:32:29;;;;;;;21.55;4.80;;;;;;;;;;5137251;27;20048;-65
2022/10/25 13:34:58;;;;;;;14.75;4.88;;;;;;;;;;5120138;27;20474;-64
2022/10/25 13:37:30;;;;;;;17.02;4.50;;;;;;;;;;5155156;27;20484;-68
2022/10/25 13:39:58;;;;;;;20.17;6.22;;;;;;;;;;5155447;27;20039;-66
2022/10/25 13:42:32;;;;;;;14.05;4.38;;;;;;;;;;5155593;27;20477;-63
2022/10/25 13:44:59;;;;;;;14.55;4.72;;;;;;;;;;5155480;27;20133;-64
2022/10/25 13:47:26;;;;;;;17.60;4.85;;;;;;;;;;5155353;27;20429;-65
2022/10/25 13:49:53;;;;;;;15.38;5.28;;;;;;;;;;5136543;27;20413;-66
2022/10/25 13:52:18;;;;;;;;;;;;;;;;;;5154988;27;20095;-65
2022/10/25 13:54:49;;;;;;;17.65;5.45;;;;;;;;;;5136823;27;19923;-64
2022/10/25 13:57:34;;;;;;;18.25;4.68;;;;;;;;;;5136104;27;20050;-64
2022/10/25 14:00:01;;;;;;;17.80;5.10;;;;;;;;;;5154945;27;20042;-68
2022/10/25 14:02:27;;;;;;;17.77;5.30;;;;;;;;;;5154854;27;20045;-65
2022/10/25 14:04:53;;;;;;;12.82;5.20;;;;;;;;;;5154494;27;20054;-64
2022/10/25 14:07:38;;;;;;;15.32;5.68;;;;;;;;;;5153797;27;20118;-65
2022/10/25 14:10:06;;;;;;;18.38;5.78;;;;;;;;;;5153433;27;20110;-65
2022/10/25 14:12:33;;;;;;;19.38;6.45;;;;;;;;;;5153728;27;20070;-64
2022/10/25 14:15:09;;;;;;;16.50;5.70;;;;;;;;;;5153315;27;20472;-64
2022/10/25 14:17:38;;;;;;;19.70;7.57;;;;;;;;;;5134489;27;20065;-69
2022/10/25 14:20:25;;;;;;;18.95;6.28;;;;;;;;;;5153305;27;20126;-64
2022/10/25 14:22:53;;;;;;;16.13;6.22;;;;;;;;;;5153146;27;20145;-65
2022/10/25 14:25:23;;;;;;;18.10;6.00;;;;;;;;;;5134534;27;20042;-64
2022/10/25 14:28:03;;;;;;;18.65;6.65;;;;;;;;;;5153157;27;20058;-64
2022/10/25 14:30:29;;;;;;;18.13;6.45;;;;;;;;;;5133778;27;20077;-65
2022/10/25 14:33:03;;;;;;;21.10;7.00;;;;;;;;;;5152945;27;20050;-63
2022/10/25 14:35:33;;;;;;;20.50;6.35;;;;;;;;;;5152949;27;20094;-70
2022/10/25 14:38:00;;;;;;;15.80;5.95;;;;;;;;;;5153085;27;20114;-65